Terminal Aerodrome Forecast
Issued by NWS

Home | Current Version | Previous Version | Text Only | Print | Product List | Glossary On
Versions: 1 2 3 4 5 6 7 8 9 10 11 12 13 14 15 16 17 18 19 20 21 22 23
000
FTUS46 KLOX 052339
TAFLGB
TAF
KLGB 052339Z 0600/0624 18007KT P6SM VCSH OVC050
     FM060400 14006KT 6SM -SHRA VCTS SCT020 OVC030CB
     FM061800 20008KT P6SM SCT025 OVC040 PROB30 0618/0622 -SHRA
      BKN025=

USA.gov is the U.S. government's official web portal to all federal, state and local government web resources and services.